sensor_id;sensor_type;location;lat;lon;timestamp;temperature;humidity
62424;DHT22;48463;43.604;3.872;2023-06-26T00:02:24;28.10;87.90
62424;DHT22;48463;43.604;3.872;2023-06-26T00:04:50;28.00;88.60
62424;DHT22;48463;43.604;3.872;2023-06-26T00:07:19;28.00;88.10
62424;DHT22;48463;43.604;3.872;2023-06-26T00:09:45;27.90;88.30
62424;DHT22;48463;43.604;3.872;2023-06-26T00:12:11;27.90;88.50
62424;DHT22;48463;43.604;3.872;2023-06-26T00:14:36;27.90;88.60
62424;DHT22;48463;43.604;3.872;2023-06-26T00:17:02;27.80;88.70
62424;DHT22;48463;43.604;3.872;2023-06-26T00:19:28;27.80;88.90
62424;DHT22;48463;43.604;3.872;2023-06-26T00:21:53;27.80;88.90
62424;DHT22;48463;43.604;3.872;2023-06-26T00:24:19;27.80;89.10
62424;DHT22;48463;43.604;3.872;2023-06-26T00:26:48;27.70;89.20
62424;DHT22;48463;43.604;3.872;2023-06-26T00:29:14;27.70;89.30
62424;DHT22;48463;43.604;3.872;2023-06-26T00:31:39;27.60;89.40
62424;DHT22;48463;43.604;3.872;2023-06-26T00:34:05;27.60;89.40
62424;DHT22;48463;43.604;3.872;2023-06-26T00:36:31;27.60;89.60
62424;DHT22;48463;43.604;3.872;2023-06-26T00:38:58;27.60;89.70
62424;DHT22;48463;43.604;3.872;2023-06-26T00:41:23;27.60;89.70
62424;DHT22;48463;43.604;3.872;2023-06-26T00:43:49;27.50;89.80
62424;DHT22;48463;43.604;3.872;2023-06-26T00:46:15;27.60;89.80
62424;DHT22;48463;43.604;3.872;2023-06-26T00:48:45;27.50;89.80
62424;DHT22;48463;43.604;3.872;2023-06-26T00:51:12;27.60;89.50
62424;DHT22;48463;43.604;3.872;2023-06-26T00:53:38;27.60;89.20
62424;DHT22;48463;43.604;3.872;2023-06-26T00:56:05;27.60;89.20
62424;DHT22;48463;43.604;3.872;2023-06-26T00:58:31;27.70;89.10
62424;DHT22;48463;43.604;3.872;2023-06-26T01:00:56;27.60;89.20
62424;DHT22;48463;43.604;3.872;2023-06-26T01:03:23;27.70;89.10
62424;DHT22;48463;43.604;3.872;2023-06-26T01:05:50;27.70;89.20
62424;DHT22;48463;43.604;3.872;2023-06-26T01:08:16;27.60;89.30
62424;DHT22;48463;43.604;3.872;2023-06-26T01:10:43;27.50;89.40
62424;DHT22;48463;43.604;3.872;2023-06-26T01:13:09;27.60;89.50
62424;DHT22;48463;43.604;3.872;2023-06-26T01:15:35;27.60;89.50
62424;DHT22;48463;43.604;3.872;2023-06-26T01:18:01;27.50;89.70
62424;DHT22;48463;43.604;3.872;2023-06-26T01:20:36;27.50;89.80
62424;DHT22;48463;43.604;3.872;2023-06-26T01:23:20;27.50;90.00
62424;DHT22;48463;43.604;3.872;2023-06-26T01:28:16;27.50;90.10
62424;DHT22;48463;43.604;3.872;2023-06-26T01:30:44;27.50;90.10
62424;DHT22;48463;43.604;3.872;2023-06-26T01:33:12;27.40;90.20
62424;DHT22;48463;43.604;3.872;2023-06-26T01:35:38;27.40;90.20
62424;DHT22;48463;43.604;3.872;2023-06-26T01:40:39;27.40;90.20
62424;DHT22;48463;43.604;3.872;2023-06-26T01:43:07;27.40;90.30
62424;DHT22;48463;43.604;3.872;2023-06-26T01:45:37;27.30;90.30
62424;DHT22;48463;43.604;3.872;2023-06-26T01:48:04;27.20;90.40
62424;DHT22;48463;43.604;3.872;2023-06-26T01:50:33;27.30;90.50
62424;DHT22;48463;43.604;3.872;2023-06-26T01:58:10;27.20;90.70
62424;DHT22;48463;43.604;3.872;2023-06-26T02:00:37;27.20;90.70
62424;DHT22;48463;43.604;3.872;2023-06-26T02:03:03;27.10;90.80
62424;DHT22;48463;43.604;3.872;2023-06-26T02:05:30;27.10;90.90
62424;DHT22;48463;43.604;3.872;2023-06-26T02:07:56;27.00;90.90
62424;DHT22;48463;43.604;3.872;2023-06-26T02:10:22;27.00;91.00
62424;DHT22;48463;43.604;3.872;2023-06-26T02:12:47;26.90;91.10
62424;DHT22;48463;43.604;3.872;2023-06-26T02:15:13;26.90;91.10
62424;DHT22;48463;43.604;3.872;2023-06-26T02:17:39;26.90;91.20
62424;DHT22;48463;43.604;3.872;2023-06-26T02:20:05;26.90;91.20
62424;DHT22;48463;43.604;3.872;2023-06-26T02:22:31;26.80;91.20
62424;DHT22;48463;43.604;3.872;2023-06-26T02:24:57;26.90;91.30
62424;DHT22;48463;43.604;3.872;2023-06-26T02:27:22;26.80;91.30
62424;DHT22;48463;43.604;3.872;2023-06-26T02:29:48;26.80;91.40
62424;DHT22;48463;43.604;3.872;2023-06-26T02:32:14;26.80;91.40
62424;DHT22;48463;43.604;3.872;2023-06-26T02:34:39;26.80;91.40
62424;DHT22;48463;43.604;3.872;2023-06-26T02:37:05;26.70;91.40
62424;DHT22;48463;43.604;3.872;2023-06-26T02:39:33;26.70;91.50
62424;DHT22;48463;43.604;3.872;2023-06-26T02:41:59;26.70;91.50
62424;DHT22;48463;43.604;3.872;2023-06-26T02:44:25;26.70;91.60
62424;DHT22;48463;43.604;3.872;2023-06-26T02:46:50;26.60;91.70
62424;DHT22;48463;43.604;3.872;2023-06-26T02:49:16;26.60;91.90
62424;DHT22;48463;43.604;3.872;2023-06-26T02:51:41;26.50;92.00
62424;DHT22;48463;43.604;3.872;2023-06-26T02:54:07;26.40;92.20
62424;DHT22;48463;43.604;3.872;2023-06-26T02:56:33;26.40;92.50
62424;DHT22;48463;43.604;3.872;2023-06-26T02:58:58;26.40;92.80
62424;DHT22;48463;43.604;3.872;2023-06-26T03:01:24;26.30;93.10
62424;DHT22;48463;43.604;3.872;2023-06-26T03:03:50;26.30;93.50
62424;DHT22;48463;43.604;3.872;2023-06-26T03:06:16;26.20;93.70
62424;DHT22;48463;43.604;3.872;2023-06-26T03:08:42;26.20;93.90
62424;DHT22;48463;43.604;3.872;2023-06-26T03:11:08;26.20;94.10
62424;DHT22;48463;43.604;3.872;2023-06-26T03:13:35;26.20;94.30
62424;DHT22;48463;43.604;3.872;2023-06-26T03:16:01;26.20;94.40
62424;DHT22;48463;43.604;3.872;2023-06-26T03:18:27;26.10;94.60
62424;DHT22;48463;43.604;3.872;2023-06-26T03:20:54;26.10;94.90
62424;DHT22;48463;43.604;3.872;2023-06-26T03:23:20;26.10;95.10
62424;DHT22;48463;43.604;3.872;2023-06-26T03:25:47;26.00;95.40
62424;DHT22;48463;43.604;3.872;2023-06-26T03:28:13;25.90;95.60
62424;DHT22;48463;43.604;3.872;2023-06-26T03:30:39;25.90;95.90
62424;DHT22;48463;43.604;3.872;2023-06-26T03:33:05;25.80;96.00
62424;DHT22;48463;43.604;3.872;2023-06-26T03:35:31;25.80;96.20
62424;DHT22;48463;43.604;3.872;2023-06-26T03:37:57;25.80;96.40
62424;DHT22;48463;43.604;3.872;2023-06-26T03:40:23;25.70;96.60
62424;DHT22;48463;43.604;3.872;2023-06-26T03:42:49;25.70;96.90
62424;DHT22;48463;43.604;3.872;2023-06-26T03:45:14;25.70;97.00
62424;DHT22;48463;43.604;3.872;2023-06-26T03:47:40;25.70;97.30
62424;DHT22;48463;43.604;3.872;2023-06-26T03:50:06;25.70;97.50
62424;DHT22;48463;43.604;3.872;2023-06-26T03:52:32;25.60;97.70
62424;DHT22;48463;43.604;3.872;2023-06-26T03:54:58;25.60;97.90
62424;DHT22;48463;43.604;3.872;2023-06-26T03:57:23;25.50;98.20
62424;DHT22;48463;43.604;3.872;2023-06-26T04:15:34;25.50;98.70
62424;DHT22;48463;43.604;3.872;2023-06-26T04:18:00;25.40;99.70
62424;DHT22;48463;43.604;3.872;2023-06-26T04:20:26;25.40;99.80
62424;DHT22;48463;43.604;3.872;2023-06-26T04:22:52;25.30;99.80
62424;DHT22;48463;43.604;3.872;2023-06-26T04:25:17;25.30;99.80
62424;DHT22;48463;43.604;3.872;2023-06-26T04:27:43;25.30;99.90
62424;DHT22;48463;43.604;3.872;2023-06-26T04:30:09;25.30;99.90
62424;DHT22;48463;43.604;3.872;2023-06-26T04:32:35;25.30;99.90
62424;DHT22;48463;43.604;3.872;2023-06-26T04:35:00;25.30;99.90
62424;DHT22;48463;43.604;3.872;2023-06-26T04:37:26;25.30;99.90
62424;DHT22;48463;43.604;3.872;2023-06-26T04:39:52;25.30;99.90
62424;DHT22;48463;43.604;3.872;2023-06-26T04:42:17;25.40;99.90
62424;DHT22;48463;43.604;3.872;2023-06-26T04:44:44;25.40;99.90
62424;DHT22;48463;43.604;3.872;2023-06-26T04:47:09;25.40;99.90
62424;DHT22;48463;43.604;3.872;2023-06-26T04:49:35;25.40;99.90
62424;DHT22;48463;43.604;3.872;2023-06-26T04:52:01;25.40;99.90
62424;DHT22;48463;43.604;3.872;2023-06-26T04:54:27;25.50;99.90
62424;DHT22;48463;43.604;3.872;2023-06-26T04:56:53;25.50;99.90
62424;DHT22;48463;43.604;3.872;2023-06-26T04:59:19;25.50;99.90
62424;DHT22;48463;43.604;3.872;2023-06-26T05:01:45;25.60;99.90
62424;DHT22;48463;43.604;3.872;2023-06-26T05:04:14;25.60;99.90
62424;DHT22;48463;43.604;3.872;2023-06-26T05:06:43;25.60;99.90
62424;DHT22;48463;43.604;3.872;2023-06-26T05:09:09;25.70;99.90
62424;DHT22;48463;43.604;3.872;2023-06-26T05:11:36;25.70;99.90
62424;DHT22;48463;43.604;3.872;2023-06-26T05:14:02;25.70;99.90
62424;DHT22;48463;43.604;3.872;2023-06-26T05:16:27;25.80;99.90
62424;DHT22;48463;43.604;3.872;2023-06-26T05:18:53;25.80;99.90
62424;DHT22;48463;43.604;3.872;2023-06-26T05:21:20;25.80;99.80
62424;DHT22;48463;43.604;3.872;2023-06-26T05:23:46;25.90;99.90
62424;DHT22;48463;43.604;3.872;2023-06-26T05:26:12;25.90;99.90
62424;DHT22;48463;43.604;3.872;2023-06-26T05:28:39;26.00;99.80
62424;DHT22;48463;43.604;3.872;2023-06-26T05:31:05;26.00;99.80
62424;DHT22;48463;43.604;3.872;2023-06-26T05:33:31;26.00;99.60
62424;DHT22;48463;43.604;3.872;2023-06-26T05:36:00;26.10;99.60
62424;DHT22;48463;43.604;3.872;2023-06-26T05:38:27;26.10;99.60
62424;DHT22;48463;43.604;3.872;2023-06-26T05:40:53;26.20;99.60
62424;DHT22;48463;43.604;3.872;2023-06-26T05:43:19;26.20;99.50
62424;DHT22;48463;43.604;3.872;2023-06-26T05:45:47;26.20;99.40
62424;DHT22;48463;43.604;3.872;2023-06-26T05:48:13;26.30;99.40
62424;DHT22;48463;43.604;3.872;2023-06-26T05:50:39;26.40;99.40
62424;DHT22;48463;43.604;3.872;2023-06-26T05:53:07;26.40;99.40
62424;DHT22;48463;43.604;3.872;2023-06-26T05:55:33;26.40;99.30
62424;DHT22;48463;43.604;3.872;2023-06-26T05:57:59;26.50;99.40
62424;DHT22;48463;43.604;3.872;2023-06-26T06:00:27;26.50;99.30
62424;DHT22;48463;43.604;3.872;2023-06-26T06:02:53;26.60;99.20
62424;DHT22;48463;43.604;3.872;2023-06-26T06:05:22;26.70;99.10
62424;DHT22;48463;43.604;3.872;2023-06-26T06:07:48;26.70;99.10
62424;DHT22;48463;43.604;3.872;2023-06-26T06:10:14;26.80;98.90
62424;DHT22;48463;43.604;3.872;2023-06-26T06:12:39;26.80;98.90
62424;DHT22;48463;43.604;3.872;2023-06-26T06:15:06;26.90;98.90
62424;DHT22;48463;43.604;3.872;2023-06-26T06:17:34;26.90;98.80
62424;DHT22;48463;43.604;3.872;2023-06-26T06:20:01;26.90;98.70
62424;DHT22;48463;43.604;3.872;2023-06-26T06:22:27;27.10;98.70
62424;DHT22;48463;43.604;3.872;2023-06-26T06:24:52;27.20;98.60
62424;DHT22;48463;43.604;3.872;2023-06-26T06:27:18;27.20;98.60
62424;DHT22;48463;43.604;3.872;2023-06-26T06:29:44;27.30;98.40
62424;DHT22;48463;43.604;3.872;2023-06-26T06:32:09;27.40;98.20
62424;DHT22;48463;43.604;3.872;2023-06-26T06:34:35;27.40;98.10
62424;DHT22;48463;43.604;3.872;2023-06-26T06:37:02;27.50;98.20
62424;DHT22;48463;43.604;3.872;2023-06-26T06:39:28;27.60;97.90
62424;DHT22;48463;43.604;3.872;2023-06-26T06:41:54;27.60;97.70
62424;DHT22;48463;43.604;3.872;2023-06-26T06:44:19;27.60;97.50
62424;DHT22;48463;43.604;3.872;2023-06-26T06:46:45;27.70;97.60
62424;DHT22;48463;43.604;3.872;2023-06-26T06:49:11;27.80;97.40
62424;DHT22;48463;43.604;3.872;2023-06-26T06:51:37;28.00;97.30
62424;DHT22;48463;43.604;3.872;2023-06-26T06:54:07;28.00;96.80
62424;DHT22;48463;43.604;3.872;2023-06-26T06:56:33;28.10;97.00
62424;DHT22;48463;43.604;3.872;2023-06-26T06:58:59;28.30;96.90
62424;DHT22;48463;43.604;3.872;2023-06-26T07:01:25;28.40;96.70
62424;DHT22;48463;43.604;3.872;2023-06-26T07:03:51;28.50;96.50
62424;DHT22;48463;43.604;3.872;2023-06-26T07:06:18;28.50;96.40
62424;DHT22;48463;43.604;3.872;2023-06-26T07:08:43;28.60;96.00
62424;DHT22;48463;43.604;3.872;2023-06-26T07:11:09;28.70;95.70
62424;DHT22;48463;43.604;3.872;2023-06-26T07:13:35;28.60;95.70
62424;DHT22;48463;43.604;3.872;2023-06-26T07:16:00;28.80;95.80
62424;DHT22;48463;43.604;3.872;2023-06-26T07:18:26;28.90;95.70
62424;DHT22;48463;43.604;3.872;2023-06-26T07:20:52;29.10;95.50
62424;DHT22;48463;43.604;3.872;2023-06-26T07:23:18;29.10;95.20
62424;DHT22;48463;43.604;3.872;2023-06-26T07:25:44;29.10;95.10
62424;DHT22;48463;43.604;3.872;2023-06-26T07:28:11;29.10;95.10
62424;DHT22;48463;43.604;3.872;2023-06-26T07:30:37;29.20;94.80
62424;DHT22;48463;43.604;3.872;2023-06-26T07:33:02;29.30;94.70
62424;DHT22;48463;43.604;3.872;2023-06-26T07:35:28;29.40;94.50
62424;DHT22;48463;43.604;3.872;2023-06-26T07:37:55;29.40;94.40
62424;DHT22;48463;43.604;3.872;2023-06-26T07:40:21;29.60;94.30
62424;DHT22;48463;43.604;3.872;2023-06-26T07:42:47;29.50;94.20
62424;DHT22;48463;43.604;3.872;2023-06-26T07:45:13;29.40;94.20
62424;DHT22;48463;43.604;3.872;2023-06-26T07:47:39;29.50;93.90
62424;DHT22;48463;43.604;3.872;2023-06-26T07:50:05;29.70;94.10
62424;DHT22;48463;43.604;3.872;2023-06-26T07:52:31;29.80;94.10
62424;DHT22;48463;43.604;3.872;2023-06-26T07:54:57;29.70;93.40
62424;DHT22;48463;43.604;3.872;2023-06-26T07:57:24;29.60;93.20
62424;DHT22;48463;43.604;3.872;2023-06-26T07:59:50;29.70;93.60
62424;DHT22;48463;43.604;3.872;2023-06-26T08:02:17;29.90;93.60
62424;DHT22;48463;43.604;3.872;2023-06-26T08:04:43;29.80;93.00
62424;DHT22;48463;43.604;3.872;2023-06-26T08:07:09;29.90;93.00
62424;DHT22;48463;43.604;3.872;2023-06-26T08:09:35;30.00;93.10
62424;DHT22;48463;43.604;3.872;2023-06-26T08:12:00;30.20;93.20
62424;DHT22;48463;43.604;3.872;2023-06-26T08:14:26;30.10;93.00
62424;DHT22;48463;43.604;3.872;2023-06-26T08:16:52;30.20;93.10
62424;DHT22;48463;43.604;3.872;2023-06-26T08:19:18;30.30;93.10
62424;DHT22;48463;43.604;3.872;2023-06-26T08:21:45;30.40;92.50
62424;DHT22;48463;43.604;3.872;2023-06-26T08:24:12;30.40;92.70
62424;DHT22;48463;43.604;3.872;2023-06-26T08:26:38;30.40;92.50
62424;DHT22;48463;43.604;3.872;2023-06-26T08:29:05;30.40;92.50
62424;DHT22;48463;43.604;3.872;2023-06-26T08:32:09;30.40;92.40
62424;DHT22;48463;43.604;3.872;2023-06-26T08:35:01;30.50;92.60
62424;DHT22;48463;43.604;3.872;2023-06-26T08:37:49;30.40;92.70
62424;DHT22;48463;43.604;3.872;2023-06-26T08:40:18;30.40;93.00
62424;DHT22;48463;43.604;3.872;2023-06-26T08:43:01;30.40;92.60
62424;DHT22;48463;43.604;3.872;2023-06-26T08:45:28;30.50;92.40
62424;DHT22;48463;43.604;3.872;2023-06-26T08:47:55;30.60;92.40
62424;DHT22;48463;43.604;3.872;2023-06-26T08:50:28;30.60;92.70
62424;DHT22;48463;43.604;3.872;2023-06-26T08:55:52;30.80;92.60
62424;DHT22;48463;43.604;3.872;2023-06-26T08:58:18;30.80;92.60
62424;DHT22;48463;43.604;3.872;2023-06-26T09:00:44;31.00;92.80
62424;DHT22;48463;43.604;3.872;2023-06-26T09:03:22;30.90;92.70
62424;DHT22;48463;43.604;3.872;2023-06-26T09:05:48;31.00;91.80
62424;DHT22;48463;43.604;3.872;2023-06-26T09:08:14;30.80;91.60
62424;DHT22;48463;43.604;3.872;2023-06-26T09:10:40;31.10;91.70
62424;DHT22;48463;43.604;3.872;2023-06-26T09:13:06;31.10;91.80
62424;DHT22;48463;43.604;3.872;2023-06-26T09:15:45;31.00;91.90
62424;DHT22;48463;43.604;3.872;2023-06-26T09:18:18;30.90;91.60
62424;DHT22;48463;43.604;3.872;2023-06-26T09:20:45;31.00;92.30
62424;DHT22;48463;43.604;3.872;2023-06-26T09:23:10;30.90;92.10
62424;DHT22;48463;43.604;3.872;2023-06-26T09:25:39;31.00;92.20
62424;DHT22;48463;43.604;3.872;2023-06-26T09:28:06;31.20;92.10
62424;DHT22;48463;43.604;3.872;2023-06-26T09:30:34;31.30;92.10
62424;DHT22;48463;43.604;3.872;2023-06-26T09:33:21;31.50;91.60
62424;DHT22;48463;43.604;3.872;2023-06-26T09:35:48;31.40;91.60
62424;DHT22;48463;43.604;3.872;2023-06-26T09:38:14;31.40;91.50
62424;DHT22;48463;43.604;3.872;2023-06-26T09:40:43;31.50;91.10
62424;DHT22;48463;43.604;3.872;2023-06-26T09:43:13;31.70;90.60
62424;DHT22;48463;43.604;3.872;2023-06-26T09:45:40;31.80;90.10
62424;DHT22;48463;43.604;3.872;2023-06-26T09:48:07;31.90;90.50
62424;DHT22;48463;43.604;3.872;2023-06-26T09:50:36;31.90;90.60
62424;DHT22;48463;43.604;3.872;2023-06-26T09:53:13;31.90;90.40
62424;DHT22;48463;43.604;3.872;2023-06-26T09:55:39;31.90;90.70
62424;DHT22;48463;43.604;3.872;2023-06-26T09:58:10;31.80;90.40
62424;DHT22;48463;43.604;3.872;2023-06-26T10:00:43;31.80;90.40
62424;DHT22;48463;43.604;3.872;2023-06-26T10:03:10;31.80;90.30
62424;DHT22;48463;43.604;3.872;2023-06-26T10:05:38;31.70;90.00
62424;DHT22;48463;43.604;3.872;2023-06-26T10:08:05;31.70;90.10
62424;DHT22;48463;43.604;3.872;2023-06-26T10:10:35;31.80;89.50
62424;DHT22;48463;43.604;3.872;2023-06-26T10:13:15;31.70;89.40
62424;DHT22;48463;43.604;3.872;2023-06-26T10:15:45;31.80;89.80
62424;DHT22;48463;43.604;3.872;2023-06-26T10:18:12;31.90;89.30
62424;DHT22;48463;43.604;3.872;2023-06-26T10:20:39;31.90;87.80
62424;DHT22;48463;43.604;3.872;2023-06-26T10:23:06;31.80;88.70
62424;DHT22;48463;43.604;3.872;2023-06-26T10:25:34;31.80;88.60
62424;DHT22;48463;43.604;3.872;2023-06-26T10:28:04;31.90;88.80
62424;DHT22;48463;43.604;3.872;2023-06-26T10:30:37;32.00;87.90
62424;DHT22;48463;43.604;3.872;2023-06-26T10:33:05;32.10;88.40
62424;DHT22;48463;43.604;3.872;2023-06-26T10:35:33;32.10;87.80
62424;DHT22;48463;43.604;3.872;2023-06-26T10:38:02;32.20;88.00
62424;DHT22;48463;43.604;3.872;2023-06-26T10:40:43;32.20;87.20
62424;DHT22;48463;43.604;3.872;2023-06-26T10:43:12;32.10;87.30
62424;DHT22;48463;43.604;3.872;2023-06-26T10:45:44;32.20;87.50
62424;DHT22;48463;43.604;3.872;2023-06-26T10:48:18;32.20;86.70
62424;DHT22;48463;43.604;3.872;2023-06-26T10:50:49;32.20;86.10
62424;DHT22;48463;43.604;3.872;2023-06-26T10:56:03;32.20;86.60
62424;DHT22;48463;43.604;3.872;2023-06-26T11:01:21;32.30;86.40
62424;DHT22;48463;43.604;3.872;2023-06-26T11:04:00;32.30;86.60
62424;DHT22;48463;43.604;3.872;2023-06-26T11:06:31;32.30;86.30
62424;DHT22;48463;43.604;3.872;2023-06-26T11:14:38;32.50;85.50
62424;DHT22;48463;43.604;3.872;2023-06-26T11:17:06;32.70;85.00
62424;DHT22;48463;43.604;3.872;2023-06-26T11:19:33;33.10;84.50
62424;DHT22;48463;43.604;3.872;2023-06-26T11:22:03;33.30;84.20
62424;DHT22;48463;43.604;3.872;2023-06-26T11:24:43;33.20;83.60
62424;DHT22;48463;43.604;3.872;2023-06-26T11:27:09;33.30;83.50
62424;DHT22;48463;43.604;3.872;2023-06-26T11:29:36;33.30;83.40
62424;DHT22;48463;43.604;3.872;2023-06-26T11:32:04;33.30;83.30
62424;DHT22;48463;43.604;3.872;2023-06-26T11:34:31;33.30;82.20
62424;DHT22;48463;43.604;3.872;2023-06-26T11:36:57;33.60;82.50
62424;DHT22;48463;43.604;3.872;2023-06-26T11:39:24;33.60;82.80
62424;DHT22;48463;43.604;3.872;2023-06-26T11:41:50;33.40;82.60
62424;DHT22;48463;43.604;3.872;2023-06-26T11:44:17;33.60;82.30
62424;DHT22;48463;43.604;3.872;2023-06-26T11:46:52;33.70;82.90
62424;DHT22;48463;43.604;3.872;2023-06-26T11:49:21;33.80;82.20
62424;DHT22;48463;43.604;3.872;2023-06-26T11:51:48;33.80;82.20
62424;DHT22;48463;43.604;3.872;2023-06-26T11:54:14;34.00;81.80
62424;DHT22;48463;43.604;3.872;2023-06-26T11:56:40;34.00;81.70
62424;DHT22;48463;43.604;3.872;2023-06-26T11:59:09;34.00;81.40
62424;DHT22;48463;43.604;3.872;2023-06-26T12:01:43;34.00;81.80
62424;DHT22;48463;43.604;3.872;2023-06-26T12:04:16;34.10;80.10
62424;DHT22;48463;43.604;3.872;2023-06-26T12:06:47;34.10;81.00
62424;DHT22;48463;43.604;3.872;2023-06-26T12:09:14;34.50;81.00
62424;DHT22;48463;43.604;3.872;2023-06-26T12:11:44;34.50;80.30
62424;DHT22;48463;43.604;3.872;2023-06-26T12:14:11;34.30;80.20
62424;DHT22;48463;43.604;3.872;2023-06-26T12:16:37;34.40;80.20
62424;DHT22;48463;43.604;3.872;2023-06-26T12:19:06;34.40;80.40
62424;DHT22;48463;43.604;3.872;2023-06-26T12:24:08;34.30;79.80
62424;DHT22;48463;43.604;3.872;2023-06-26T12:26:35;34.30;79.20
62424;DHT22;48463;43.604;3.872;2023-06-26T12:29:07;34.40;77.80
62424;DHT22;48463;43.604;3.872;2023-06-26T12:31:34;34.80;77.60
62424;DHT22;48463;43.604;3.872;2023-06-26T12:34:00;34.60;76.90
62424;DHT22;48463;43.604;3.872;2023-06-26T12:36:26;34.90;76.70
62424;DHT22;48463;43.604;3.872;2023-06-26T12:39:00;34.70;75.70
62424;DHT22;48463;43.604;3.872;2023-06-26T12:41:32;34.90;75.80
62424;DHT22;48463;43.604;3.872;2023-06-26T12:43:57;34.90;75.70
62424;DHT22;48463;43.604;3.872;2023-06-26T12:46:34;34.90;76.70
62424;DHT22;48463;43.604;3.872;2023-06-26T12:49:00;35.30;74.00
62424;DHT22;48463;43.604;3.872;2023-06-26T12:51:26;35.20;75.00
62424;DHT22;48463;43.604;3.872;2023-06-26T12:53:53;35.10;75.40
62424;DHT22;48463;43.604;3.872;2023-06-26T12:56:20;35.20;74.60
62424;DHT22;48463;43.604;3.872;2023-06-26T12:58:46;35.60;73.60
62424;DHT22;48463;43.604;3.872;2023-06-26T13:47:06;36.50;70.70
62424;DHT22;48463;43.604;3.872;2023-06-26T13:49:32;36.50;72.50
62424;DHT22;48463;43.604;3.872;2023-06-26T13:51:57;36.30;72.40
62424;DHT22;48463;43.604;3.872;2023-06-26T13:54:23;36.30;72.10
62424;DHT22;48463;43.604;3.872;2023-06-26T13:56:49;36.00;72.50
62424;DHT22;48463;43.604;3.872;2023-06-26T13:59:14;36.40;72.60
62424;DHT22;48463;43.604;3.872;2023-06-26T14:01:40;36.40;71.20
62424;DHT22;48463;43.604;3.872;2023-06-26T14:04:08;36.30;71.30
62424;DHT22;48463;43.604;3.872;2023-06-26T14:06:33;36.70;71.30
62424;DHT22;48463;43.604;3.872;2023-06-26T14:09:00;36.20;70.70
62424;DHT22;48463;43.604;3.872;2023-06-26T14:11:26;36.10;69.20
62424;DHT22;48463;43.604;3.872;2023-06-26T14:13:51;36.30;69.00
62424;DHT22;48463;43.604;3.872;2023-06-26T14:16:17;36.50;69.00
62424;DHT22;48463;43.604;3.872;2023-06-26T14:18:44;36.60;68.50
62424;DHT22;48463;43.604;3.872;2023-06-26T14:21:10;36.80;68.80
62424;DHT22;48463;43.604;3.872;2023-06-26T14:23:35;36.70;69.30
62424;DHT22;48463;43.604;3.872;2023-06-26T14:26:01;36.80;70.20
62424;DHT22;48463;43.604;3.872;2023-06-26T14:28:26;36.70;70.00
62424;DHT22;48463;43.604;3.872;2023-06-26T14:30:52;36.70;70.20
62424;DHT22;48463;43.604;3.872;2023-06-26T14:33:18;36.80;70.90
62424;DHT22;48463;43.604;3.872;2023-06-26T14:35:43;36.70;70.10
62424;DHT22;48463;43.604;3.872;2023-06-26T14:38:09;37.10;70.10
62424;DHT22;48463;43.604;3.872;2023-06-26T14:40:35;36.90;69.80
62424;DHT22;48463;43.604;3.872;2023-06-26T14:43:00;36.80;69.60
62424;DHT22;48463;43.604;3.872;2023-06-26T14:45:26;36.40;69.60
62424;DHT22;48463;43.604;3.872;2023-06-26T14:47:51;36.70;70.30
62424;DHT22;48463;43.604;3.872;2023-06-26T14:50:17;37.10;70.40
62424;DHT22;48463;43.604;3.872;2023-06-26T14:52:43;36.80;70.10
62424;DHT22;48463;43.604;3.872;2023-06-26T14:55:08;36.60;70.00
62424;DHT22;48463;43.604;3.872;2023-06-26T14:57:35;36.60;70.20
62424;DHT22;48463;43.604;3.872;2023-06-26T15:00:01;37.50;70.00
62424;DHT22;48463;43.604;3.872;2023-06-26T15:02:26;38.70;67.90
62424;DHT22;48463;43.604;3.872;2023-06-26T15:04:52;41.10;65.90
62424;DHT22;48463;43.604;3.872;2023-06-26T15:07:18;40.30;64.80
62424;DHT22;48463;43.604;3.872;2023-06-26T15:09:44;40.40;65.10
62424;DHT22;48463;43.604;3.872;2023-06-26T15:12:09;40.20;65.30
62424;DHT22;48463;43.604;3.872;2023-06-26T15:14:35;39.70;64.90
62424;DHT22;48463;43.604;3.872;2023-06-26T15:17:00;38.20;65.80
62424;DHT22;48463;43.604;3.872;2023-06-26T15:19:26;37.10;67.80
62424;DHT22;48463;43.604;3.872;2023-06-26T15:21:52;36.50;68.70
62424;DHT22;48463;43.604;3.872;2023-06-26T15:24:17;36.80;69.00
62424;DHT22;48463;43.604;3.872;2023-06-26T15:26:43;36.60;68.60
62424;DHT22;48463;43.604;3.872;2023-06-26T15:29:09;36.90;69.00
62424;DHT22;48463;43.604;3.872;2023-06-26T15:31:35;36.90;69.20
62424;DHT22;48463;43.604;3.872;2023-06-26T15:34:00;37.30;68.60
62424;DHT22;48463;43.604;3.872;2023-06-26T15:36:26;37.30;68.20
62424;DHT22;48463;43.604;3.872;2023-06-26T15:38:52;37.00;68.80
62424;DHT22;48463;43.604;3.872;2023-06-26T15:41:17;37.00;68.70
62424;DHT22;48463;43.604;3.872;2023-06-26T15:43:43;37.20;68.70
62424;DHT22;48463;43.604;3.872;2023-06-26T15:46:10;37.00;68.70
62424;DHT22;48463;43.604;3.872;2023-06-26T15:48:35;37.30;68.70
62424;DHT22;48463;43.604;3.872;2023-06-26T15:51:01;37.40;68.10
62424;DHT22;48463;43.604;3.872;2023-06-26T15:53:37;37.30;67.60
62424;DHT22;48463;43.604;3.872;2023-06-26T15:56:21;36.50;67.80
62424;DHT22;48463;43.604;3.872;2023-06-26T15:58:46;36.90;68.20
62424;DHT22;48463;43.604;3.872;2023-06-26T16:01:14;37.40;67.90
62424;DHT22;48463;43.604;3.872;2023-06-26T16:03:40;38.40;67.60
62424;DHT22;48463;43.604;3.872;2023-06-26T16:06:07;37.60;68.10
62424;DHT22;48463;43.604;3.872;2023-06-26T16:08:34;37.10;67.60
62424;DHT22;48463;43.604;3.872;2023-06-26T16:11:00;37.00;68.00
62424;DHT22;48463;43.604;3.872;2023-06-26T16:13:26;37.10;68.20
62424;DHT22;48463;43.604;3.872;2023-06-26T16:15:52;37.20;67.90
62424;DHT22;48463;43.604;3.872;2023-06-26T16:18:18;37.20;68.00
62424;DHT22;48463;43.604;3.872;2023-06-26T16:20:43;37.20;67.30
62424;DHT22;48463;43.604;3.872;2023-06-26T16:23:09;36.80;66.80
62424;DHT22;48463;43.604;3.872;2023-06-26T16:25:35;36.70;67.80
62424;DHT22;48463;43.604;3.872;2023-06-26T16:28:01;36.70;67.10
62424;DHT22;48463;43.604;3.872;2023-06-26T16:30:27;36.60;68.00
62424;DHT22;48463;43.604;3.872;2023-06-26T16:32:52;37.30;67.40
62424;DHT22;48463;43.604;3.872;2023-06-26T16:35:19;37.00;66.70
62424;DHT22;48463;43.604;3.872;2023-06-26T16:37:45;37.20;66.90
62424;DHT22;48463;43.604;3.872;2023-06-26T16:40:10;37.00;66.90
62424;DHT22;48463;43.604;3.872;2023-06-26T16:42:36;36.70;66.60
62424;DHT22;48463;43.604;3.872;2023-06-26T16:45:02;36.40;66.40
62424;DHT22;48463;43.604;3.872;2023-06-26T16:47:28;37.20;66.70
62424;DHT22;48463;43.604;3.872;2023-06-26T16:49:55;37.20;66.10
62424;DHT22;48463;43.604;3.872;2023-06-26T16:52:21;37.30;66.60
62424;DHT22;48463;43.604;3.872;2023-06-26T16:54:47;37.20;67.40
62424;DHT22;48463;43.604;3.872;2023-06-26T16:57:13;36.40;71.10
62424;DHT22;48463;43.604;3.872;2023-06-26T16:59:38;36.20;73.30